sensor_id;sensor_type;location;lat;lon;timestamp;P1;durP1;ratioP1;P2;durP2;ratioP2
20525;SDS011;10421;49.142;9.232;2023-01-15T00:01:41;1.07;;;0.40;;
20525;SDS011;10421;49.142;9.232;2023-01-15T00:04:10;1.10;;;0.63;;
20525;SDS011;10421;49.142;9.232;2023-01-15T00:06:38;0.80;;;0.60;;
20525;SDS011;10421;49.142;9.232;2023-01-15T00:09:07;0.50;;;0.50;;
20525;SDS011;10421;49.142;9.232;2023-01-15T00:11:37;0.50;;;0.50;;
20525;SDS011;10421;49.142;9.232;2023-01-15T00:14:03;0.50;;;0.40;;
20525;SDS011;10421;49.142;9.232;2023-01-15T00:16:34;0.50;;;0.40;;
20525;SDS011;10421;49.142;9.232;2023-01-15T00:19:05;0.60;;;0.40;;
20525;SDS011;10421;49.142;9.232;2023-01-15T00:21:36;0.50;;;0.40;;
20525;SDS011;10421;49.142;9.232;2023-01-15T00:24:03;0.77;;;0.50;;
20525;SDS011;10421;49.142;9.232;2023-01-15T00:26:48;0.60;;;0.50;;
20525;SDS011;10421;49.142;9.232;2023-01-15T00:29:32;0.57;;;0.50;;
20525;SDS011;10421;49.142;9.232;2023-01-15T00:31:59;0.67;;;0.60;;
20525;SDS011;10421;49.142;9.232;2023-01-15T00:34:29;0.70;;;0.60;;
20525;SDS011;10421;49.142;9.232;2023-01-15T00:36:57;0.50;;;0.40;;
20525;SDS011;10421;49.142;9.232;2023-01-15T00:39:24;0.50;;;0.43;;
20525;SDS011;10421;49.142;9.232;2023-01-15T00:41:51;0.70;;;0.43;;
20525;SDS011;10421;49.142;9.232;2023-01-15T00:44:19;0.80;;;0.40;;
20525;SDS011;10421;49.142;9.232;2023-01-15T00:46:46;1.20;;;0.60;;
20525;SDS011;10421;49.142;9.232;2023-01-15T00:49:13;0.67;;;0.40;;
20525;SDS011;10421;49.142;9.232;2023-01-15T00:51:41;0.70;;;0.43;;
20525;SDS011;10421;49.142;9.232;2023-01-15T00:54:08;0.80;;;0.50;;
20525;SDS011;10421;49.142;9.232;2023-01-15T00:56:35;0.80;;;0.50;;
20525;SDS011;10421;49.142;9.232;2023-01-15T00:59:02;0.80;;;0.40;;
20525;SDS011;10421;49.142;9.232;2023-01-15T01:01:29;0.70;;;0.43;;
20525;SDS011;10421;49.142;9.232;2023-01-15T01:03:56;0.60;;;0.47;;
20525;SDS011;10421;49.142;9.232;2023-01-15T01:06:23;0.53;;;0.50;;
20525;SDS011;10421;49.142;9.232;2023-01-15T01:08:51;0.50;;;0.40;;
20525;SDS011;10421;49.142;9.232;2023-01-15T01:11:18;0.70;;;0.50;;
20525;SDS011;10421;49.142;9.232;2023-01-15T01:13:50;0.50;;;0.50;;
20525;SDS011;10421;49.142;9.232;2023-01-15T01:16:22;0.50;;;0.40;;
20525;SDS011;10421;49.142;9.232;2023-01-15T01:18:51;0.47;;;0.40;;
20525;SDS011;10421;49.142;9.232;2023-01-15T01:21:18;0.60;;;0.50;;
20525;SDS011;10421;49.142;9.232;2023-01-15T01:23:45;0.50;;;0.47;;
20525;SDS011;10421;49.142;9.232;2023-01-15T01:26:13;0.60;;;0.40;;
20525;SDS011;10421;49.142;9.232;2023-01-15T01:28:40;0.70;;;0.40;;
20525;SDS011;10421;49.142;9.232;2023-01-15T01:31:07;1.00;;;0.40;;
20525;SDS011;10421;49.142;9.232;2023-01-15T01:33:34;0.60;;;0.40;;
20525;SDS011;10421;49.142;9.232;2023-01-15T01:36:01;0.50;;;0.40;;
20525;SDS011;10421;49.142;9.232;2023-01-15T01:38:28;1.33;;;0.40;;
20525;SDS011;10421;49.142;9.232;2023-01-15T01:40:55;0.50;;;0.40;;
20525;SDS011;10421;49.142;9.232;2023-01-15T01:43:23;1.17;;;0.40;;
20525;SDS011;10421;49.142;9.232;2023-01-15T01:45:52;0.50;;;0.50;;
20525;SDS011;10421;49.142;9.232;2023-01-15T01:48:20;3.50;;;0.50;;
20525;SDS011;10421;49.142;9.232;2023-01-15T01:50:51;0.70;;;0.50;;
20525;SDS011;10421;49.142;9.232;2023-01-15T01:53:22;0.80;;;0.47;;
20525;SDS011;10421;49.142;9.232;2023-01-15T01:55:52;0.70;;;0.40;;
20525;SDS011;10421;49.142;9.232;2023-01-15T01:58:20;0.50;;;0.40;;
20525;SDS011;10421;49.142;9.232;2023-01-15T02:00:52;0.50;;;0.43;;
20525;SDS011;10421;49.142;9.232;2023-01-15T02:03:19;0.50;;;0.40;;
20525;SDS011;10421;49.142;9.232;2023-01-15T02:05:49;1.33;;;0.60;;
20525;SDS011;10421;49.142;9.232;2023-01-15T02:08:18;1.43;;;0.40;;
20525;SDS011;10421;49.142;9.232;2023-01-15T02:10:45;0.70;;;0.40;;
20525;SDS011;10421;49.142;9.232;2023-01-15T02:13:18;0.80;;;0.33;;
20525;SDS011;10421;49.142;9.232;2023-01-15T02:15:52;0.50;;;0.40;;
20525;SDS011;10421;49.142;9.232;2023-01-15T02:18:26;0.57;;;0.40;;
20525;SDS011;10421;49.142;9.232;2023-01-15T02:20:56;0.77;;;0.33;;
20525;SDS011;10421;49.142;9.232;2023-01-15T02:26:49;0.50;;;0.40;;
20525;SDS011;10421;49.142;9.232;2023-01-15T02:29:34;0.47;;;0.30;;
20525;SDS011;10421;49.142;9.232;2023-01-15T02:32:13;0.60;;;0.40;;
20525;SDS011;10421;49.142;9.232;2023-01-15T02:34:45;0.50;;;0.30;;
20525;SDS011;10421;49.142;9.232;2023-01-15T02:37:19;1.13;;;0.40;;
20525;SDS011;10421;49.142;9.232;2023-01-15T02:39:50;1.10;;;0.50;;
20525;SDS011;10421;49.142;9.232;2023-01-15T02:42:21;0.50;;;0.33;;
20525;SDS011;10421;49.142;9.232;2023-01-15T02:44:50;0.50;;;0.43;;
20525;SDS011;10421;49.142;9.232;2023-01-15T02:47:21;0.50;;;0.40;;
20525;SDS011;10421;49.142;9.232;2023-01-15T02:49:51;0.60;;;0.40;;
20525;SDS011;10421;49.142;9.232;2023-01-15T02:52:21;0.50;;;0.37;;
20525;SDS011;10421;49.142;9.232;2023-01-15T02:54:52;0.40;;;0.30;;
20525;SDS011;10421;49.142;9.232;2023-01-15T02:57:24;1.23;;;0.40;;
20525;SDS011;10421;49.142;9.232;2023-01-15T02:59:53;0.70;;;0.40;;
20525;SDS011;10421;49.142;9.232;2023-01-15T03:02:24;0.50;;;0.47;;
20525;SDS011;10421;49.142;9.232;2023-01-15T03:04:55;0.40;;;0.30;;
20525;SDS011;10421;49.142;9.232;2023-01-15T03:07:29;0.70;;;0.50;;
20525;SDS011;10421;49.142;9.232;2023-01-15T03:10:01;0.50;;;0.40;;
20525;SDS011;10421;49.142;9.232;2023-01-15T03:12:32;0.40;;;0.30;;
20525;SDS011;10421;49.142;9.232;2023-01-15T03:15:25;0.80;;;0.33;;
20525;SDS011;10421;49.142;9.232;2023-01-15T03:18:13;0.60;;;0.50;;
20525;SDS011;10421;49.142;9.232;2023-01-15T03:20:42;0.40;;;0.30;;
20525;SDS011;10421;49.142;9.232;2023-01-15T03:23:15;0.57;;;0.40;;
20525;SDS011;10421;49.142;9.232;2023-01-15T03:25:46;4.40;;;0.40;;
20525;SDS011;10421;49.142;9.232;2023-01-15T03:28:16;0.40;;;0.30;;
20525;SDS011;10421;49.142;9.232;2023-01-15T03:30:47;0.40;;;0.40;;
20525;SDS011;10421;49.142;9.232;2023-01-15T03:33:13;0.40;;;0.30;;
20525;SDS011;10421;49.142;9.232;2023-01-15T03:35:45;0.50;;;0.30;;
20525;SDS011;10421;49.142;9.232;2023-01-15T03:38:15;0.50;;;0.40;;
20525;SDS011;10421;49.142;9.232;2023-01-15T03:40:46;0.40;;;0.40;;
20525;SDS011;10421;49.142;9.232;2023-01-15T03:43:18;0.53;;;0.30;;
20525;SDS011;10421;49.142;9.232;2023-01-15T03:46:13;1.00;;;0.30;;
20525;SDS011;10421;49.142;9.232;2023-01-15T03:48:50;0.50;;;0.40;;
20525;SDS011;10421;49.142;9.232;2023-01-15T03:51:24;0.67;;;0.30;;
20525;SDS011;10421;49.142;9.232;2023-01-15T03:53:58;0.80;;;0.40;;
20525;SDS011;10421;49.142;9.232;2023-01-15T03:56:30;0.47;;;0.33;;
20525;SDS011;10421;49.142;9.232;2023-01-15T03:59:02;0.40;;;0.30;;
20525;SDS011;10421;49.142;9.232;2023-01-15T04:01:35;0.40;;;0.30;;
20525;SDS011;10421;49.142;9.232;2023-01-15T04:04:03;0.50;;;0.30;;
20525;SDS011;10421;49.142;9.232;2023-01-15T04:06:32;0.40;;;0.30;;
20525;SDS011;10421;49.142;9.232;2023-01-15T04:09:02;0.50;;;0.30;;
20525;SDS011;10421;49.142;9.232;2023-01-15T04:11:32;0.40;;;0.30;;
20525;SDS011;10421;49.142;9.232;2023-01-15T04:13:59;0.40;;;0.30;;
20525;SDS011;10421;49.142;9.232;2023-01-15T04:16:28;0.40;;;0.40;;
20525;SDS011;10421;49.142;9.232;2023-01-15T04:18:56;0.50;;;0.40;;
20525;SDS011;10421;49.142;9.232;2023-01-15T04:21:23;0.50;;;0.50;;
20525;SDS011;10421;49.142;9.232;2023-01-15T04:23:50;1.47;;;0.40;;
20525;SDS011;10421;49.142;9.232;2023-01-15T04:26:17;0.60;;;0.40;;
20525;SDS011;10421;49.142;9.232;2023-01-15T04:28:44;0.40;;;0.30;;
20525;SDS011;10421;49.142;9.232;2023-01-15T04:31:11;0.40;;;0.40;;
20525;SDS011;10421;49.142;9.232;2023-01-15T04:33:39;0.50;;;0.30;;
20525;SDS011;10421;49.142;9.232;2023-01-15T04:36:05;0.60;;;0.30;;
20525;SDS011;10421;49.142;9.232;2023-01-15T04:38:33;0.50;;;0.30;;
20525;SDS011;10421;49.142;9.232;2023-01-15T04:41:01;0.50;;;0.40;;
20525;SDS011;10421;49.142;9.232;2023-01-15T04:43:46;0.50;;;0.33;;
20525;SDS011;10421;49.142;9.232;2023-01-15T04:46:31;0.60;;;0.30;;
20525;SDS011;10421;49.142;9.232;2023-01-15T04:49:00;0.57;;;0.30;;
20525;SDS011;10421;49.142;9.232;2023-01-15T04:51:27;0.70;;;0.40;;
20525;SDS011;10421;49.142;9.232;2023-01-15T04:53:53;0.40;;;0.30;;
20525;SDS011;10421;49.142;9.232;2023-01-15T04:56:20;0.40;;;0.30;;
20525;SDS011;10421;49.142;9.232;2023-01-15T04:58:47;1.20;;;0.30;;
20525;SDS011;10421;49.142;9.232;2023-01-15T05:01:14;0.50;;;0.40;;
20525;SDS011;10421;49.142;9.232;2023-01-15T05:03:43;0.47;;;0.37;;
20525;SDS011;10421;49.142;9.232;2023-01-15T05:06:11;0.50;;;0.30;;
20525;SDS011;10421;49.142;9.232;2023-01-15T05:08:39;0.40;;;0.30;;
20525;SDS011;10421;49.142;9.232;2023-01-15T05:11:06;0.50;;;0.40;;
20525;SDS011;10421;49.142;9.232;2023-01-15T05:13:33;0.50;;;0.30;;
20525;SDS011;10421;49.142;9.232;2023-01-15T05:16:10;0.50;;;0.30;;
20525;SDS011;10421;49.142;9.232;2023-01-15T05:18:38;0.40;;;0.30;;
20525;SDS011;10421;49.142;9.232;2023-01-15T05:21:06;0.60;;;0.40;;
20525;SDS011;10421;49.142;9.232;2023-01-15T05:23:39;0.40;;;0.30;;
20525;SDS011;10421;49.142;9.232;2023-01-15T05:26:06;0.50;;;0.37;;
20525;SDS011;10421;49.142;9.232;2023-01-15T05:28:33;0.50;;;0.30;;
20525;SDS011;10421;49.142;9.232;2023-01-15T05:31:04;0.50;;;0.40;;
20525;SDS011;10421;49.142;9.232;2023-01-15T05:33:32;0.50;;;0.30;;
20525;SDS011;10421;49.142;9.232;2023-01-15T05:36:00;0.40;;;0.40;;
20525;SDS011;10421;49.142;9.232;2023-01-15T05:38:28;0.57;;;0.30;;
20525;SDS011;10421;49.142;9.232;2023-01-15T05:40:55;0.40;;;0.30;;
20525;SDS011;10421;49.142;9.232;2023-01-15T05:43:22;0.47;;;0.37;;
20525;SDS011;10421;49.142;9.232;2023-01-15T05:45:48;0.40;;;0.40;;
20525;SDS011;10421;49.142;9.232;2023-01-15T05:48:15;0.50;;;0.40;;
20525;SDS011;10421;49.142;9.232;2023-01-15T05:50:42;0.50;;;0.40;;
20525;SDS011;10421;49.142;9.232;2023-01-15T05:53:08;0.50;;;0.50;;
20525;SDS011;10421;49.142;9.232;2023-01-15T05:55:36;0.60;;;0.43;;
20525;SDS011;10421;49.142;9.232;2023-01-15T05:58:03;1.00;;;0.60;;
20525;SDS011;10421;49.142;9.232;2023-01-15T06:00:30;0.60;;;0.60;;
20525;SDS011;10421;49.142;9.232;2023-01-15T06:02:56;1.27;;;0.50;;
20525;SDS011;10421;49.142;9.232;2023-01-15T06:05:23;1.20;;;0.60;;
20525;SDS011;10421;49.142;9.232;2023-01-15T06:07:50;1.30;;;0.60;;
20525;SDS011;10421;49.142;9.232;2023-01-15T06:10:17;0.80;;;0.70;;
20525;SDS011;10421;49.142;9.232;2023-01-15T06:12:45;0.50;;;0.50;;
20525;SDS011;10421;49.142;9.232;2023-01-15T06:15:12;0.50;;;0.50;;
20525;SDS011;10421;49.142;9.232;2023-01-15T06:17:39;1.30;;;0.83;;
20525;SDS011;10421;49.142;9.232;2023-01-15T06:20:06;0.77;;;0.70;;
20525;SDS011;10421;49.142;9.232;2023-01-15T06:22:35;1.20;;;1.10;;
20525;SDS011;10421;49.142;9.232;2023-01-15T06:25:03;1.37;;;0.93;;
20525;SDS011;10421;49.142;9.232;2023-01-15T06:27:30;1.30;;;1.20;;
20525;SDS011;10421;49.142;9.232;2023-01-15T06:29:58;1.30;;;1.20;;
20525;SDS011;10421;49.142;9.232;2023-01-15T06:32:25;1.20;;;1.10;;
20525;SDS011;10421;49.142;9.232;2023-01-15T06:34:51;4.53;;;2.80;;
20525;SDS011;10421;49.142;9.232;2023-01-15T06:37:18;2.10;;;1.70;;
20525;SDS011;10421;49.142;9.232;2023-01-15T06:39:45;0.63;;;0.60;;
20525;SDS011;10421;49.142;9.232;2023-01-15T06:42:12;1.00;;;0.70;;
20525;SDS011;10421;49.142;9.232;2023-01-15T06:44:57;0.60;;;0.53;;
20525;SDS011;10421;49.142;9.232;2023-01-15T06:47:41;0.50;;;0.47;;
20525;SDS011;10421;49.142;9.232;2023-01-15T06:50:09;0.50;;;0.40;;
20525;SDS011;10421;49.142;9.232;2023-01-15T06:52:36;0.53;;;0.40;;
20525;SDS011;10421;49.142;9.232;2023-01-15T06:55:03;0.40;;;0.30;;
20525;SDS011;10421;49.142;9.232;2023-01-15T06:57:31;0.40;;;0.30;;
20525;SDS011;10421;49.142;9.232;2023-01-15T06:59:59;0.40;;;0.40;;
20525;SDS011;10421;49.142;9.232;2023-01-15T07:02:26;0.50;;;0.40;;
20525;SDS011;10421;49.142;9.232;2023-01-15T07:04:52;0.40;;;0.30;;
20525;SDS011;10421;49.142;9.232;2023-01-15T07:07:19;0.40;;;0.40;;
20525;SDS011;10421;49.142;9.232;2023-01-15T07:09:46;0.43;;;0.30;;
20525;SDS011;10421;49.142;9.232;2023-01-15T07:12:13;0.50;;;0.40;;
20525;SDS011;10421;49.142;9.232;2023-01-15T07:14:40;0.50;;;0.30;;
20525;SDS011;10421;49.142;9.232;2023-01-15T07:17:08;0.50;;;0.40;;
20525;SDS011;10421;49.142;9.232;2023-01-15T07:19:35;0.63;;;0.40;;
20525;SDS011;10421;49.142;9.232;2023-01-15T07:22:02;0.40;;;0.40;;
20525;SDS011;10421;49.142;9.232;2023-01-15T07:24:29;0.57;;;0.37;;
20525;SDS011;10421;49.142;9.232;2023-01-15T07:26:56;0.50;;;0.40;;
20525;SDS011;10421;49.142;9.232;2023-01-15T07:29:22;0.60;;;0.30;;
20525;SDS011;10421;49.142;9.232;2023-01-15T07:31:49;0.40;;;0.40;;
20525;SDS011;10421;49.142;9.232;2023-01-15T07:34:17;0.50;;;0.40;;
20525;SDS011;10421;49.142;9.232;2023-01-15T07:36:45;0.40;;;0.30;;
20525;SDS011;10421;49.142;9.232;2023-01-15T07:39:11;0.40;;;0.30;;
20525;SDS011;10421;49.142;9.232;2023-01-15T07:41:38;0.50;;;0.43;;
20525;SDS011;10421;49.142;9.232;2023-01-15T07:44:23;0.43;;;0.33;;
20525;SDS011;10421;49.142;9.232;2023-01-15T07:47:13;0.40;;;0.30;;
20525;SDS011;10421;49.142;9.232;2023-01-15T07:50:03;0.50;;;0.40;;
20525;SDS011;10421;49.142;9.232;2023-01-15T07:52:31;0.50;;;0.50;;
20525;SDS011;10421;49.142;9.232;2023-01-15T07:54:58;0.50;;;0.40;;
20525;SDS011;10421;49.142;9.232;2023-01-15T07:57:26;0.60;;;0.40;;
20525;SDS011;10421;49.142;9.232;2023-01-15T07:59:53;0.50;;;0.40;;
20525;SDS011;10421;49.142;9.232;2023-01-15T08:02:20;0.70;;;0.40;;
20525;SDS011;10421;49.142;9.232;2023-01-15T08:04:46;0.60;;;0.40;;
20525;SDS011;10421;49.142;9.232;2023-01-15T08:07:14;0.73;;;0.50;;
20525;SDS011;10421;49.142;9.232;2023-01-15T08:09:41;0.50;;;0.40;;
20525;SDS011;10421;49.142;9.232;2023-01-15T08:12:08;0.40;;;0.33;;
20525;SDS011;10421;49.142;9.232;2023-01-15T08:14:53;0.40;;;0.30;;
20525;SDS011;10421;49.142;9.232;2023-01-15T08:17:39;0.60;;;0.60;;
20525;SDS011;10421;49.142;9.232;2023-01-15T08:20:08;0.50;;;0.40;;
20525;SDS011;10421;49.142;9.232;2023-01-15T08:22:38;1.93;;;1.30;;
20525;SDS011;10421;49.142;9.232;2023-01-15T08:25:06;0.50;;;0.47;;
20525;SDS011;10421;49.142;9.232;2023-01-15T08:27:35;0.60;;;0.40;;
20525;SDS011;10421;49.142;9.232;2023-01-15T08:30:02;0.50;;;0.40;;
20525;SDS011;10421;49.142;9.232;2023-01-15T08:32:30;0.40;;;0.40;;
20525;SDS011;10421;49.142;9.232;2023-01-15T08:34:56;0.60;;;0.40;;
20525;SDS011;10421;49.142;9.232;2023-01-15T08:37:23;0.50;;;0.30;;
20525;SDS011;10421;49.142;9.232;2023-01-15T08:39:51;0.40;;;0.40;;
20525;SDS011;10421;49.142;9.232;2023-01-15T08:42:18;0.50;;;0.40;;
20525;SDS011;10421;49.142;9.232;2023-01-15T08:44:45;0.50;;;0.50;;
20525;SDS011;10421;49.142;9.232;2023-01-15T08:47:13;0.50;;;0.40;;
20525;SDS011;10421;49.142;9.232;2023-01-15T08:49:40;0.40;;;0.30;;
20525;SDS011;10421;49.142;9.232;2023-01-15T08:52:06;0.50;;;0.40;;
20525;SDS011;10421;49.142;9.232;2023-01-15T08:54:33;0.50;;;0.47;;
20525;SDS011;10421;49.142;9.232;2023-01-15T08:57:01;0.50;;;0.40;;
20525;SDS011;10421;49.142;9.232;2023-01-15T08:59:28;0.50;;;0.40;;
20525;SDS011;10421;49.142;9.232;2023-01-15T09:01:55;0.50;;;0.40;;
20525;SDS011;10421;49.142;9.232;2023-01-15T09:04:21;3.43;;;0.50;;
20525;SDS011;10421;49.142;9.232;2023-01-15T09:06:48;0.50;;;0.40;;
20525;SDS011;10421;49.142;9.232;2023-01-15T09:09:15;0.73;;;0.50;;
20525;SDS011;10421;49.142;9.232;2023-01-15T09:11:42;0.60;;;0.40;;
20525;SDS011;10421;49.142;9.232;2023-01-15T09:14:12;0.70;;;0.50;;
20525;SDS011;10421;49.142;9.232;2023-01-15T09:16:40;0.70;;;0.40;;
20525;SDS011;10421;49.142;9.232;2023-01-15T09:19:08;1.47;;;0.50;;
20525;SDS011;10421;49.142;9.232;2023-01-15T09:21:35;1.03;;;0.50;;
20525;SDS011;10421;49.142;9.232;2023-01-15T09:24:02;0.50;;;0.40;;
20525;SDS011;10421;49.142;9.232;2023-01-15T09:26:29;0.50;;;0.40;;
20525;SDS011;10421;49.142;9.232;2023-01-15T09:28:58;0.63;;;0.47;;
20525;SDS011;10421;49.142;9.232;2023-01-15T09:31:27;0.57;;;0.50;;
20525;SDS011;10421;49.142;9.232;2023-01-15T09:33:54;0.70;;;0.50;;
20525;SDS011;10421;49.142;9.232;2023-01-15T09:36:22;0.87;;;0.50;;
20525;SDS011;10421;49.142;9.232;2023-01-15T09:38:51;0.80;;;0.60;;
20525;SDS011;10421;49.142;9.232;2023-01-15T09:41:18;0.50;;;0.50;;
20525;SDS011;10421;49.142;9.232;2023-01-15T09:44:09;0.50;;;0.50;;
20525;SDS011;10421;49.142;9.232;2023-01-15T09:46:52;0.47;;;0.40;;
20525;SDS011;10421;49.142;9.232;2023-01-15T09:49:28;0.60;;;0.40;;
20525;SDS011;10421;49.142;9.232;2023-01-15T09:52:07;0.57;;;0.57;;
20525;SDS011;10421;49.142;9.232;2023-01-15T09:54:42;0.50;;;0.30;;
20525;SDS011;10421;49.142;9.232;2023-01-15T09:57:15;0.90;;;0.50;;
20525;SDS011;10421;49.142;9.232;2023-01-15T09:59:44;0.70;;;0.43;;
20525;SDS011;10421;49.142;9.232;2023-01-15T10:02:16;0.50;;;0.40;;
20525;SDS011;10421;49.142;9.232;2023-01-15T10:04:55;1.37;;;0.57;;
20525;SDS011;10421;49.142;9.232;2023-01-15T10:07:29;0.87;;;0.50;;
20525;SDS011;10421;49.142;9.232;2023-01-15T10:10:03;0.50;;;0.40;;
20525;SDS011;10421;49.142;9.232;2023-01-15T10:12:31;0.80;;;0.50;;
20525;SDS011;10421;49.142;9.232;2023-01-15T10:15:05;1.13;;;0.53;;
20525;SDS011;10421;49.142;9.232;2023-01-15T10:17:50;1.43;;;0.50;;
20525;SDS011;10421;49.142;9.232;2023-01-15T10:20:27;0.53;;;0.40;;
20525;SDS011;10421;49.142;9.232;2023-01-15T10:23:14;1.00;;;0.40;;
20525;SDS011;10421;49.142;9.232;2023-01-15T10:25:50;0.50;;;0.50;;
20525;SDS011;10421;49.142;9.232;2023-01-15T10:28:21;0.57;;;0.50;;
20525;SDS011;10421;49.142;9.232;2023-01-15T10:30:52;0.60;;;0.40;;
20525;SDS011;10421;49.142;9.232;2023-01-15T10:33:27;0.70;;;0.60;;
20525;SDS011;10421;49.142;9.232;2023-01-15T10:36:09;0.63;;;0.50;;
20525;SDS011;10421;49.142;9.232;2023-01-15T10:38:42;0.50;;;0.50;;
20525;SDS011;10421;49.142;9.232;2023-01-15T10:41:20;0.70;;;0.50;;
20525;SDS011;10421;49.142;9.232;2023-01-15T10:43:58;2.47;;;0.50;;
20525;SDS011;10421;49.142;9.232;2023-01-15T10:46:31;1.33;;;0.40;;
20525;SDS011;10421;49.142;9.232;2023-01-15T10:49:09;0.50;;;0.43;;
20525;SDS011;10421;49.142;9.232;2023-01-15T10:51:41;0.60;;;0.53;;
20525;SDS011;10421;49.142;9.232;2023-01-15T10:54:11;0.50;;;0.50;;
20525;SDS011;10421;49.142;9.232;2023-01-15T10:56:45;0.40;;;0.33;;
20525;SDS011;10421;49.142;9.232;2023-01-15T10:59:17;0.50;;;0.40;;
20525;SDS011;10421;49.142;9.232;2023-01-15T11:01:47;0.60;;;0.50;;
20525;SDS011;10421;49.142;9.232;2023-01-15T11:04:17;0.50;;;0.50;;
20525;SDS011;10421;49.142;9.232;2023-01-15T11:06:45;1.73;;;0.40;;
20525;SDS011;10421;49.142;9.232;2023-01-15T11:09:16;0.70;;;0.50;;
20525;SDS011;10421;49.142;9.232;2023-01-15T11:11:46;0.50;;;0.40;;
20525;SDS011;10421;49.142;9.232;2023-01-15T11:14:44;1.20;;;0.90;;
20525;SDS011;10421;49.142;9.232;2023-01-15T11:17:31;1.63;;;0.90;;
20525;SDS011;10421;49.142;9.232;2023-01-15T11:20:24;0.83;;;0.60;;
20525;SDS011;10421;49.142;9.232;2023-01-15T11:22:54;0.50;;;0.50;;
20525;SDS011;10421;49.142;9.232;2023-01-15T11:25:25;1.07;;;0.47;;
20525;SDS011;10421;49.142;9.232;2023-01-15T11:27:53;0.93;;;0.70;;
20525;SDS011;10421;49.142;9.232;2023-01-15T11:30:24;0.80;;;0.60;;
20525;SDS011;10421;49.142;9.232;2023-01-15T11:32:56;1.23;;;0.50;;
20525;SDS011;10421;49.142;9.232;2023-01-15T11:35:25;0.60;;;0.53;;
20525;SDS011;10421;49.142;9.232;2023-01-15T11:38:04;2.30;;;0.70;;
20525;SDS011;10421;49.142;9.232;2023-01-15T11:40:32;1.13;;;0.53;;
20525;SDS011;10421;49.142;9.232;2023-01-15T11:42:59;1.67;;;0.60;;
20525;SDS011;10421;49.142;9.232;2023-01-15T11:45:57;1.13;;;0.70;;
20525;SDS011;10421;49.142;9.232;2023-01-15T11:48:56;0.80;;;0.53;;
20525;SDS011;10421;49.142;9.232;2023-01-15T11:51:42;0.90;;;0.50;;
20525;SDS011;10421;49.142;9.232;2023-01-15T11:54:13;0.80;;;0.67;;
20525;SDS011;10421;49.142;9.232;2023-01-15T11:56:41;2.10;;;0.80;;
20525;SDS011;10421;49.142;9.232;2023-01-15T11:59:10;1.97;;;0.80;;
20525;SDS011;10421;49.142;9.232;2023-01-15T12:01:46;1.43;;;0.50;;
20525;SDS011;10421;49.142;9.232;2023-01-15T12:04:23;1.57;;;0.50;;
20525;SDS011;10421;49.142;9.232;2023-01-15T12:06:55;0.50;;;0.40;;
20525;SDS011;10421;49.142;9.232;2023-01-15T12:09:24;0.60;;;0.60;;
20525;SDS011;10421;49.142;9.232;2023-01-15T12:12:02;0.80;;;0.60;;
20525;SDS011;10421;49.142;9.232;2023-01-15T12:14:44;0.70;;;0.50;;
20525;SDS011;10421;49.142;9.232;2023-01-15T12:17:28;2.30;;;0.67;;
20525;SDS011;10421;49.142;9.232;2023-01-15T12:20:11;0.97;;;0.77;;
20525;SDS011;10421;49.142;9.232;2023-01-15T12:22:54;2.30;;;0.80;;
20525;SDS011;10421;49.142;9.232;2023-01-15T12:25:32;1.53;;;0.60;;
20525;SDS011;10421;49.142;9.232;2023-01-15T12:28:09;1.07;;;0.60;;
20525;SDS011;10421;49.142;9.232;2023-01-15T12:30:39;1.20;;;0.50;;
20525;SDS011;10421;49.142;9.232;2023-01-15T12:33:13;4.10;;;0.60;;
20525;SDS011;10421;49.142;9.232;2023-01-15T12:35:45;1.10;;;0.60;;
20525;SDS011;10421;49.142;9.232;2023-01-15T12:38:23;1.00;;;0.67;;
20525;SDS011;10421;49.142;9.232;2023-01-15T12:41:00;1.20;;;0.77;;
20525;SDS011;10421;49.142;9.232;2023-01-15T12:43:32;0.60;;;0.53;;
20525;SDS011;10421;49.142;9.232;2023-01-15T12:46:16;1.23;;;0.60;;
20525;SDS011;10421;49.142;9.232;2023-01-15T12:48:49;0.60;;;0.60;;
20525;SDS011;10421;49.142;9.232;2023-01-15T12:51:20;2.93;;;0.90;;
20525;SDS011;10421;49.142;9.232;2023-01-15T12:53:54;0.50;;;0.50;;
20525;SDS011;10421;49.142;9.232;2023-01-15T12:56:25;1.23;;;0.77;;
20525;SDS011;10421;49.142;9.232;2023-01-15T12:58:54;0.90;;;0.90;;
20525;SDS011;10421;49.142;9.232;2023-01-15T13:01:28;2.10;;;0.80;;
20525;SDS011;10421;49.142;9.232;2023-01-15T13:04:02;2.20;;;0.70;;
20525;SDS011;10421;49.142;9.232;2023-01-15T13:06:36;1.20;;;0.60;;
20525;SDS011;10421;49.142;9.232;2023-01-15T13:09:13;4.50;;;0.73;;
20525;SDS011;10421;49.142;9.232;2023-01-15T13:11:53;1.77;;;0.90;;
20525;SDS011;10421;49.142;9.232;2023-01-15T13:14:20;0.70;;;0.60;;
20525;SDS011;10421;49.142;9.232;2023-01-15T13:16:50;0.93;;;0.53;;
20525;SDS011;10421;49.142;9.232;2023-01-15T13:19:28;4.03;;;0.90;;
20525;SDS011;10421;49.142;9.232;2023-01-15T13:22:04;2.90;;;0.70;;
20525;SDS011;10421;49.142;9.232;2023-01-15T13:24:46;1.77;;;0.70;;
20525;SDS011;10421;49.142;9.232;2023-01-15T13:27:25;3.30;;;0.77;;
20525;SDS011;10421;49.142;9.232;2023-01-15T13:30:08;1.57;;;0.80;;
20525;SDS011;10421;49.142;9.232;2023-01-15T13:32:46;1.27;;;0.70;;
20525;SDS011;10421;49.142;9.232;2023-01-15T13:35:21;0.80;;;0.60;;
20525;SDS011;10421;49.142;9.232;2023-01-15T13:37:55;1.83;;;1.10;;
20525;SDS011;10421;49.142;9.232;2023-01-15T13:40:26;1.80;;;0.83;;
20525;SDS011;10421;49.142;9.232;2023-01-15T13:42:57;2.10;;;0.80;;
20525;SDS011;10421;49.142;9.232;2023-01-15T13:45:27;1.57;;;0.93;;
20525;SDS011;10421;49.142;9.232;2023-01-15T13:48:02;3.57;;;1.30;;
20525;SDS011;10421;49.142;9.232;2023-01-15T13:50:32;3.13;;;0.80;;
20525;SDS011;10421;49.142;9.232;2023-01-15T13:53:03;2.20;;;0.73;;
20525;SDS011;10421;49.142;9.232;2023-01-15T13:55:34;0.80;;;0.70;;
20525;SDS011;10421;49.142;9.232;2023-01-15T13:58:14;0.67;;;0.60;;
20525;SDS011;10421;49.142;9.232;2023-01-15T14:00:42;0.87;;;0.60;;
20525;SDS011;10421;49.142;9.232;2023-01-15T14:03:22;4.00;;;0.70;;
20525;SDS011;10421;49.142;9.232;2023-01-15T14:05:53;0.87;;;0.60;;
20525;SDS011;10421;49.142;9.232;2023-01-15T14:08:22;1.80;;;0.57;;
20525;SDS011;10421;49.142;9.232;2023-01-15T14:10:53;3.33;;;0.93;;
20525;SDS011;10421;49.142;9.232;2023-01-15T14:13:27;1.40;;;0.70;;
20525;SDS011;10421;49.142;9.232;2023-01-15T14:16:21;1.13;;;0.70;;
20525;SDS011;10421;49.142;9.232;2023-01-15T14:22:15;1.40;;;0.87;;
20525;SDS011;10421;49.142;9.232;2023-01-15T14:25:06;4.10;;;0.80;;
20525;SDS011;10421;49.142;9.232;2023-01-15T14:27:50;0.90;;;0.67;;
20525;SDS011;10421;49.142;9.232;2023-01-15T14:30:36;1.80;;;0.80;;
20525;SDS011;10421;49.142;9.232;2023-01-15T14:33:30;2.30;;;0.70;;
20525;SDS011;10421;49.142;9.232;2023-01-15T14:36:07;2.50;;;0.77;;
20525;SDS011;10421;49.142;9.232;2023-01-15T14:38:36;2.43;;;0.63;;
20525;SDS011;10421;49.142;9.232;2023-01-15T14:41:12;2.20;;;0.70;;
20525;SDS011;10421;49.142;9.232;2023-01-15T14:43:40;1.53;;;0.80;;
20525;SDS011;10421;49.142;9.232;2023-01-15T14:46:14;1.17;;;0.80;;
20525;SDS011;10421;49.142;9.232;2023-01-15T14:48:48;2.40;;;1.03;;
20525;SDS011;10421;49.142;9.232;2023-01-15T14:51:16;1.37;;;0.90;;
20525;SDS011;10421;49.142;9.232;2023-01-15T14:53:48;1.23;;;0.70;;
20525;SDS011;10421;49.142;9.232;2023-01-15T14:56:18;1.13;;;0.83;;
20525;SDS011;10421;49.142;9.232;2023-01-15T14:58:56;1.50;;;1.23;;
20525;SDS011;10421;49.142;9.232;2023-01-15T15:01:30;1.20;;;0.70;;
20525;SDS011;10421;49.142;9.232;2023-01-15T15:04:04;2.53;;;1.00;;
20525;SDS011;10421;49.142;9.232;2023-01-15T15:06:48;0.60;;;0.50;;
20525;SDS011;10421;49.142;9.232;2023-01-15T15:09:24;2.43;;;0.83;;
20525;SDS011;10421;49.142;9.232;2023-01-15T15:11:56;2.20;;;1.00;;
20525;SDS011;10421;49.142;9.232;2023-01-15T15:14:48;2.97;;;0.97;;
20525;SDS011;10421;49.142;9.232;2023-01-15T15:17:34;3.80;;;0.80;;
20525;SDS011;10421;49.142;9.232;2023-01-15T15:20:14;1.47;;;0.60;;
20525;SDS011;10421;49.142;9.232;2023-01-15T15:22:46;1.10;;;0.80;;